Huron Regional Airport Huron US
ICAO: KHON
IATA: HON
Category: Medium
Scheduled Services: Yes

Elevation: 1289 ft
TransAlt. 18000 ft.

Airport Communications:
ASOS:118.125
MINNEAPOLIS CNTR:126.25
CTAF:123.6
RDO:122.1
RDO:122.2
UNICOM:123

KHON Zoom In..

If you have problems with the map follow the link
https://www.worldairports.se/pages/airport.php?
ICAO=KHON

Runways:

(A) RW 12 length 7201 ft width 100 ft
ILS 110.30 / hdg 121

(B) RW 17 length 5000 ft width 75 ft
---- / hdg 173

(C) RW 30 length 7201 ft width 100 ft
---- / hdg 301

(D) RW 35 length 5000 ft width 75 ft
---- / hdg 353

Location; KHON
Day. 16 / Time. 02.55 Zulu
* Altimeter: 30.01
* Temperature: 04° c. 39.2°f.
* Wind from: 310° Speed 07 kn.
Dewpoint: 01° c.
Visibility: 10 Statute Miles.
Clouds: Few 2300 ft.
Clouds: Overcast 3200 ft.

KHON 160255Z AUTO 31007KT 10SM FEW023 OVC032 04/01 A3001 RMK AO2 SLP177 T00390011 51002


Wind From 310°
Speed 07 kn.

 
 
jpsmedia.com for Web Design worldairports.se 2018   terms of use